This is the latest recevied weather packets stored in our database for station/object LTAC. If no packets are shown the sender has not sent any weather packets the latest 10 day(s).
| Time | Temp. | Humidity | Pressure | Rain* | Wind** | Luminosity | Snow |
|---|---|---|---|---|---|---|---|
| 1777734904 | 6.11° C | 87% | 1013 hPa | - | - | - | - |
| 1777731303 | 7.22° C | 70% | 1012 hPa | - | - | - | - |
| 1777729504 | 7.22° C | 70% | 1012 hPa | - | - | - | - |
| 1777727704 | 7.78° C | 65% | 1013 hPa | - | - | - | - |
| 1777725904 | 7.22° C | 70% | 1013 hPa | - | - | - | - |
| 1777723204 | 7.78° C | 65% | 1013 hPa | - | - | - | - |
| 1777722303 | 7.22° C | 70% | 1013 hPa | - | - | - | - |
| 1777720504 | 7.22° C | 65% | 1014 hPa | - | - | - | - |
| 1777716904 | 7.22° C | 70% | 1014 hPa | - | - | - | - |
| 1777716003 | 7.22° C | 70% | 1014 hPa | - | - | - | - |
| 1777714204 | 6.11° C | 70% | 1014 hPa | - | - | - | - |
| 1777713304 | 6.11° C | 70% | 1014 hPa | - | - | - | - |
| 1777710604 | 7.22° C | 65% | 1014 hPa | - | - | - | - |
| 1777709704 | 7.22° C | 65% | 1015 hPa | - | - | - | - |
| 1777708805 | 7.22° C | 65% | 1015 hPa | - | - | - | - |
| 1777707904 | 6.11° C | 70% | 1014 hPa | - | - | - | - |
| 1777707005 | 6.11° C | 70% | 1014 hPa | - | - | - | - |
| 1777706104 | 6.11° C | 75% | 1014 hPa | - | - | - | - |
| 1777704305 | 5° C | 80% | 1014 hPa | - | - | - | - |
| 1777703404 | 5° C | 80% | 1014 hPa | - | - | - | - |
| 1777702504 | 5° C | 80% | 1015 hPa | - | - | - | - |
| 1777700704 | 5° C | 80% | 1015 hPa | - | - | - | - |
| 1777699805 | 5° C | 80% | 1015 hPa | - | - | - | - |
| 1777698004 | 3.89° C | 86% | 1015 hPa | - | - | - | - |
| 1777697106 | 5° C | 80% | 1014 hPa | - | - | - | - |
* Rain since midnight (hover to see other rain measurements)
** Current wind speed in m/s (hover to see current wind gust speed)